createdAt,value
2019-04-06T00:00:20.672Z,99129.69
2019-04-06T00:02:50.218Z,99128.33
2019-04-06T00:05:19.238Z,99134.92
2019-04-06T00:07:48.521Z,99132.16
2019-04-06T00:10:17.814Z,99132.37
2019-04-06T00:12:47.358Z,99130.41
2019-04-06T00:15:16.987Z,99130.80
2019-04-06T00:17:46.166Z,99120.61
2019-04-06T00:20:15.987Z,99126.08
2019-04-06T00:22:45.835Z,99125.26
2019-04-06T00:25:15.500Z,99125.58
2019-04-06T00:27:45.088Z,99132.14
2019-04-06T00:30:14.944Z,99137.28
2019-04-06T00:32:46.075Z,99126.82
2019-04-06T00:35:15.759Z,99127.21
2019-04-06T00:37:45.202Z,99123.72
2019-04-06T00:40:14.993Z,99123.42
2019-04-06T00:42:44.617Z,99128.14
2019-04-06T00:45:14.360Z,99116.02
2019-04-06T00:47:43.836Z,99122.68
2019-04-06T00:50:13.646Z,99124.13
2019-04-06T00:52:43.135Z,99124.24
2019-04-06T00:55:12.818Z,99120.73
2019-04-06T00:57:42.014Z,99122.91
2019-04-06T01:00:11.446Z,99128.03
2019-04-06T01:02:40.980Z,99125.25
2019-04-06T01:05:10.370Z,99117.03
2019-04-06T01:07:39.718Z,99112.08
2019-04-06T01:10:09.257Z,99113.02
2019-04-06T01:12:38.778Z,99114.97
2019-04-06T01:15:08.920Z,99120.83
2019-04-06T01:17:38.809Z,99114.33
2019-04-06T01:20:08.518Z,99114.36
2019-04-06T01:22:38.243Z,99108.61
2019-04-06T01:25:08.088Z,99113.44
2019-04-06T01:27:37.804Z,99115.20
2019-04-06T01:30:08.382Z,99115.41
2019-04-06T01:32:38.023Z,99115.41
2019-04-06T01:35:07.724Z,99107.17
2019-04-06T01:37:37.320Z,99107.59
2019-04-06T01:40:07.289Z,99102.77
2019-04-06T01:42:36.549Z,99103.56
2019-04-06T01:45:07.259Z,99105.31
2019-04-06T01:47:36.928Z,99108.52
2019-04-06T01:50:06.701Z,99105.21
2019-04-06T01:52:36.342Z,99104.48
2019-04-06T01:55:06.443Z,99103.36
2019-04-06T01:57:36.244Z,99100.05
2019-04-06T02:00:08.954Z,99095.86
2019-04-06T02:02:40.059Z,99090.39
2019-04-06T02:05:10.128Z,99086.59
2019-04-06T02:07:39.652Z,99083.92
2019-04-06T02:10:09.766Z,99086.08
2019-04-06T02:12:38.834Z,99086.80
2019-04-06T02:15:08.734Z,99085.19
2019-04-06T02:17:38.211Z,99094.13
2019-04-06T02:20:07.932Z,99099.16
2019-04-06T02:22:37.384Z,99103.98
2019-04-06T02:25:07.306Z,99101.72
2019-04-06T02:27:37.035Z,99099.88
2019-04-06T02:30:09.737Z,99098.45
2019-04-06T02:32:40.944Z,99106.78
2019-04-06T02:35:12.368Z,99104.91
2019-04-06T02:37:43.577Z,99100.61
2019-04-06T02:40:12.979Z,99106.66
2019-04-06T02:42:47.157Z,99105.23
2019-04-06T02:45:16.917Z,99108.11
2019-04-06T02:47:46.683Z,99100.38
2019-04-06T02:50:15.982Z,99102.56
2019-04-06T02:52:46.008Z,99110.45
2019-04-06T02:55:15.696Z,99110.45
2019-04-06T02:57:44.638Z,99103.58
2019-04-06T03:00:14.393Z,99113.34
2019-04-06T03:02:43.597Z,99112.51
2019-04-06T03:05:13.979Z,99115.09
2019-04-06T03:07:43.731Z,99104.30
2019-04-06T03:10:13.159Z,99107.40
2019-04-06T03:12:42.661Z,99106.25
2019-04-06T03:15:12.355Z,99102.25
2019-04-06T03:17:41.888Z,99096.91
2019-04-06T03:20:11.127Z,99100.20
2019-04-06T03:22:40.669Z,99097.62
2019-04-06T03:25:10.387Z,99096.99
2019-04-06T03:27:39.976Z,99094.64
2019-04-06T03:30:12.473Z,99091.47
2019-04-06T03:32:41.761Z,99091.20
2019-04-06T03:35:11.518Z,99094.09
2019-04-06T03:37:41.006Z,99096.13
2019-04-06T03:40:11.077Z,99092.72
2019-04-06T03:42:40.740Z,99099.28
2019-04-06T03:45:10.769Z,99095.86
2019-04-06T03:47:40.506Z,99098.56
2019-04-06T03:50:10.379Z,99096.81
2019-04-06T03:52:39.567Z,99094.73
2019-04-06T03:55:09.878Z,99083.01
2019-04-06T03:57:39.146Z,99090.56
2019-04-06T04:00:09.174Z,99093.23
2019-04-06T04:02:38.678Z,99090.56
2019-04-06T04:05:08.620Z,99095.49
2019-04-06T04:07:38.222Z,99093.71
2019-04-06T04:10:09.020Z,99095.52
2019-04-06T04:12:38.393Z,99088.44
2019-04-06T04:15:07.825Z,99086.28
2019-04-06T04:17:37.373Z,99092.95
2019-04-06T04:20:07.735Z,99091.82
2019-04-06T04:22:37.289Z,99101.77
2019-04-06T04:25:07.051Z,99100.09
2019-04-06T04:27:38.120Z,99102.84
2019-04-06T04:30:08.522Z,99112.69
2019-04-06T04:32:37.927Z,99108.84
2019-04-06T04:35:07.684Z,99114.13
2019-04-06T04:37:37.478Z,99115.67
2019-04-06T04:40:07.299Z,99120.06
2019-04-06T04:42:36.889Z,99123.86
2019-04-06T04:45:06.648Z,99128.94
2019-04-06T04:47:36.189Z,99130.78
2019-04-06T04:50:07.478Z,99135.52
2019-04-06T04:52:36.842Z,99139.73
2019-04-06T04:55:07.108Z,99140.33
2019-04-06T04:57:41.199Z,99142.17
2019-04-06T05:00:08.210Z,99140.53
2019-04-06T05:02:37.362Z,99141.36
2019-04-06T05:05:09.404Z,99138.80
2019-04-06T05:07:39.519Z,99145.47
2019-04-06T05:10:09.613Z,99151.62
2019-04-06T05:12:38.847Z,99150.80
2019-04-06T05:15:11.675Z,99146.64
2019-04-06T05:17:41.011Z,99147.20
2019-04-06T05:20:10.763Z,99149.78
2019-04-06T05:22:40.333Z,99155.83
2019-04-06T05:25:10.324Z,99156.03
2019-04-06T05:27:50.760Z,99159.67
2019-04-06T05:30:11.547Z,99159.78
2019-04-06T05:32:41.013Z,99159.93
2019-04-06T05:35:10.842Z,99164.20
2019-04-06T05:37:40.297Z,99170.09
2019-04-06T05:40:10.109Z,99165.52
2019-04-06T05:42:39.564Z,99170.18
2019-04-06T05:45:10.297Z,99174.39
2019-04-06T05:47:39.923Z,99177.20
2019-04-06T05:50:09.370Z,99179.73
2019-04-06T05:52:38.588Z,99171.38
2019-04-06T05:55:08.291Z,99178.89
2019-04-06T05:57:38.086Z,99185.71
2019-04-06T06:00:10.478Z,99186.93
2019-04-06T06:02:41.302Z,99188.89
2019-04-06T06:05:11.480Z,99180.88
2019-04-06T06:07:41.713Z,99197.62
2019-04-06T06:10:12.049Z,99197.62
2019-04-06T06:12:41.925Z,99194.23
2019-04-06T06:15:12.428Z,99198.13
2019-04-06T06:17:42.350Z,99203.50
2019-04-06T06:20:12.793Z,99200.12
2019-04-06T06:22:42.809Z,99204.62
2019-04-06T06:25:12.548Z,99209.15
2019-04-06T06:27:42.023Z,99204.05
2019-04-06T06:30:11.930Z,99204.53
2019-04-06T06:32:41.453Z,99209.36
2019-04-06T06:35:11.146Z,99206.19
2019-04-06T06:37:40.638Z,99206.80
2019-04-06T06:40:11.727Z,99201.24
2019-04-06T06:42:41.344Z,99205.61
2019-04-06T06:45:10.915Z,99208.23
2019-04-06T06:47:40.639Z,99210.26
2019-04-06T06:50:10.561Z,99199.64
2019-04-06T06:52:40.198Z,99205.61
2019-04-06T06:55:11.634Z,99205.73
2019-04-06T06:57:44.107Z,99197.86
2019-04-06T07:00:13.902Z,99202.54
2019-04-06T07:02:43.484Z,99203.05
2019-04-06T07:05:12.960Z,99204.27
2019-04-06T07:07:44.302Z,99205.39
2019-04-06T07:10:13.884Z,99209.70
2019-04-06T07:12:43.100Z,99206.10
2019-04-06T07:15:12.796Z,99206.69
2019-04-06T07:17:42.424Z,99203.91
2019-04-06T07:20:12.546Z,99200.98
2019-04-06T07:22:42.249Z,99201.60
2019-04-06T07:25:11.894Z,99193.23
2019-04-06T07:27:41.395Z,99195.83
2019-04-06T07:30:10.582Z,99186.23
2019-04-06T07:32:40.376Z,99189.70
2019-04-06T07:35:10.020Z,99178.27
2019-04-06T07:37:39.761Z,99184.34
2019-04-06T07:40:09.467Z,99169.69
2019-04-06T07:42:38.974Z,99176.48
2019-04-06T07:45:09.150Z,99172.28
2019-04-06T07:47:38.748Z,99175.20
2019-04-06T07:50:10.213Z,99171.34
2019-04-06T07:52:39.828Z,99161.58
2019-04-06T07:55:09.567Z,99170.67
2019-04-06T07:57:38.956Z,99175.69
2019-04-06T08:00:09.368Z,99167.06
2019-04-06T08:02:38.865Z,99163.84
2019-04-06T08:05:09.084Z,99155.02
2019-04-06T08:07:38.496Z,99153.92
2019-04-06T08:10:08.824Z,99155.08
2019-04-06T08:12:38.547Z,99159.91
2019-04-06T08:15:08.424Z,99158.20
2019-04-06T08:17:38.047Z,99159.83
2019-04-06T08:20:08.570Z,99152.51
2019-04-06T08:22:38.184Z,99151.78
2019-04-06T08:25:08.180Z,99159.22
2019-04-06T08:27:37.724Z,99163.59
2019-04-06T08:30:09.665Z,99153.94
2019-04-06T08:32:40.476Z,99153.98
2019-04-06T08:35:10.367Z,99139.42
2019-04-06T08:37:39.710Z,99142.70
2019-04-06T08:40:09.563Z,99138.23
2019-04-06T08:42:39.066Z,99148.14
2019-04-06T08:45:08.965Z,99133.70
2019-04-06T08:47:38.495Z,99133.05
2019-04-06T08:50:08.780Z,99135.80
2019-04-06T08:52:38.920Z,99129.61
2019-04-06T08:55:16.931Z,99122.73
2019-04-06T08:57:46.510Z,99130.81
2019-04-06T09:00:16.416Z,99133.67
2019-04-06T09:02:47.757Z,99150.39
2019-04-06T09:05:17.388Z,99145.63
2019-04-06T09:07:46.988Z,99144.89
2019-04-06T09:10:16.658Z,99141.54
2019-04-06T09:12:46.314Z,99146.36
2019-04-06T09:15:16.998Z,99141.98
2019-04-06T09:17:46.738Z,99138.50
2019-04-06T09:20:17.890Z,99138.89
2019-04-06T09:22:47.399Z,99131.92
2019-04-06T09:25:16.994Z,99122.91
2019-04-06T09:27:46.613Z,99128.81
2019-04-06T09:30:16.416Z,99134.61
2019-04-06T09:32:45.998Z,99141.25
2019-04-06T09:35:15.587Z,99138.66
2019-04-06T09:37:45.167Z,99137.94
2019-04-06T09:40:15.138Z,99135.62
2019-04-06T09:42:44.805Z,99131.83
2019-04-06T09:45:16.035Z,99127.16
2019-04-06T09:47:47.307Z,99123.71
2019-04-06T09:50:18.789Z,99122.03
2019-04-06T09:52:52.442Z,99121.61
2019-04-06T09:55:23.588Z,99122.13
2019-04-06T09:57:54.771Z,99127.79
2019-04-06T10:00:24.391Z,99117.66
2019-04-06T10:02:59.959Z,99129.30
2019-04-06T10:05:31.305Z,99126.12
2019-04-06T10:08:02.673Z,99115.83
2019-04-06T10:10:34.055Z,99110.53
2019-04-06T10:13:05.384Z,99116.50
2019-04-06T10:15:36.566Z,99114.33
2019-04-06T10:18:07.218Z,99114.28
2019-04-06T10:20:38.549Z,99114.36
2019-04-06T10:23:09.586Z,99109.47
2019-04-06T10:25:43.497Z,99102.88
2019-04-06T10:28:14.134Z,99109.11
2019-04-06T10:30:45.315Z,99089.55
2019-04-06T10:33:16.762Z,99096.74
2019-04-06T10:35:53.104Z,99097.34
2019-04-06T10:38:22.635Z,99110.64
2019-04-06T10:40:52.139Z,99108.76
2019-04-06T10:43:23.238Z,99106.73
2019-04-06T10:45:53.786Z,99091.31
2019-04-06T10:48:26.488Z,99090.73
2019-04-06T10:50:59.486Z,99087.63
2019-04-06T10:53:30.883Z,99086.86
2019-04-06T10:56:02.997Z,99086.52
2019-04-06T10:58:34.273Z,99070.89
2019-04-06T11:01:09.281Z,99071.83
2019-04-06T11:03:40.472Z,99072.95
2019-04-06T11:06:11.797Z,99069.61
2019-04-06T11:08:42.350Z,99072.00
2019-04-06T11:11:19.363Z,99069.41
2019-04-06T11:13:48.671Z,99067.58
2019-04-06T11:16:19.906Z,99068.19
2019-04-06T11:18:56.828Z,99066.39
2019-04-06T11:21:28.147Z,99054.16
2019-04-06T11:23:58.518Z,99058.55
2019-04-06T11:26:30.393Z,99045.57
2019-04-06T11:29:01.554Z,99045.57
2019-04-06T11:31:32.783Z,99037.70
2019-04-06T11:34:03.930Z,99031.13
2019-04-06T11:36:35.378Z,99023.42
2019-04-06T11:39:09.017Z,99022.90
2019-04-06T11:41:42.289Z,99021.61
2019-04-06T11:44:13.454Z,99011.59
2019-04-06T11:46:44.712Z,99022.95
2019-04-06T11:49:15.992Z,99019.92
2019-04-06T11:51:50.274Z,99017.64
2019-04-06T11:54:20.908Z,99015.52
2019-04-06T11:56:52.157Z,99017.98
2019-04-06T11:59:23.378Z,99010.86
2019-04-06T12:01:54.545Z,99006.84
2019-04-06T12:04:26.066Z,99011.27
2019-04-06T12:07:01.703Z,99017.03
2019-04-06T12:09:33.839Z,99009.14
2019-04-06T12:12:05.012Z,98998.53
2019-04-06T12:14:36.141Z,99004.90
2019-04-06T12:17:07.810Z,99003.31
2019-04-06T12:19:37.089Z,99009.80
2019-04-06T12:22:11.147Z,99000.92
2019-04-06T12:24:44.115Z,99010.84
2019-04-06T12:27:15.213Z,99004.41
2019-04-06T12:29:46.063Z,99001.28
2019-04-06T12:32:17.331Z,98997.52
2019-04-06T12:34:48.563Z,99009.80
2019-04-06T12:37:18.974Z,98997.54
2019-04-06T12:39:53.057Z,98991.06
2019-04-06T12:42:23.009Z,98995.48
2019-04-06T12:44:54.156Z,98998.77
2019-04-06T12:47:27.963Z,98997.03
2019-04-06T12:49:59.373Z,98996.30
2019-04-06T12:52:30.685Z,98992.20
2019-04-06T12:55:01.905Z,98984.27
2019-04-06T12:57:33.136Z,98986.56
2019-04-06T13:00:04.357Z,98982.61
2019-04-06T13:02:35.672Z,98980.88
2019-04-06T13:05:12.384Z,98983.98
2019-04-06T13:07:42.412Z,98981.30
2019-04-06T13:10:13.634Z,98972.03
2019-04-06T13:12:44.632Z,98967.93
2019-04-06T13:15:18.184Z,98966.93
2019-04-06T13:17:49.545Z,98969.91
2019-04-06T13:20:20.802Z,98971.50
2019-04-06T13:22:51.999Z,98971.08
2019-04-06T13:25:22.439Z,98958.09
2019-04-06T13:27:52.849Z,98964.03
2019-04-06T13:30:24.103Z,98951.58
2019-04-06T13:32:57.249Z,98967.19
2019-04-06T13:35:32.523Z,98958.56
2019-04-06T13:38:03.869Z,98954.84
2019-04-06T13:40:34.929Z,98953.56
2019-04-06T13:43:05.823Z,98952.06
2019-04-06T13:45:40.373Z,98953.42
2019-04-06T13:48:11.552Z,98944.31
2019-04-06T13:50:42.997Z,98950.30
2019-04-06T13:53:13.334Z,98952.73
2019-04-06T13:55:44.487Z,98957.87
2019-04-06T13:58:15.873Z,98952.76
2019-04-06T14:00:47.811Z,98953.02
2019-04-06T14:03:21.515Z,98945.41
2019-04-06T14:05:51.973Z,98949.75
2019-04-06T14:08:25.132Z,98941.86
2019-04-06T14:10:56.265Z,98946.48
2019-04-06T14:13:27.813Z,98939.45
2019-04-06T14:15:58.320Z,98928.29
2019-04-06T14:18:29.564Z,98930.14
2019-04-06T14:21:03.557Z,98935.29
2019-04-06T14:23:32.953Z,98922.42
2019-04-06T14:26:03.207Z,98919.58
2019-04-06T14:28:34.415Z,98913.07
2019-04-06T14:31:04.953Z,98915.94
2019-04-06T14:33:37.200Z,98921.42
2019-04-06T14:36:11.037Z,98922.80
2019-04-06T14:38:44.959Z,98923.74
2019-04-06T14:41:16.783Z,98923.38
2019-04-06T14:43:48.192Z,98924.94
2019-04-06T14:46:19.473Z,98916.47
2019-04-06T14:48:51.111Z,98911.30
2019-04-06T14:51:22.662Z,98911.30
2019-04-06T14:53:53.753Z,98914.83
2019-04-06T14:56:24.919Z,98912.66
2019-04-06T14:58:56.177Z,98905.45
2019-04-06T15:01:38.473Z,98905.45
2019-04-06T15:04:00.413Z,98904.21
2019-04-06T15:06:34.363Z,98900.86
2019-04-06T15:09:09.898Z,98900.84
2019-04-06T15:11:40.990Z,98903.03
2019-04-06T15:14:14.928Z,98899.19
2019-04-06T15:16:46.446Z,98897.80
2019-04-06T15:19:18.233Z,98893.77
2019-04-06T15:21:49.486Z,98887.47
2019-04-06T15:24:21.175Z,98884.09
2019-04-06T15:26:52.345Z,98877.64
2019-04-06T15:29:26.378Z,98883.84
2019-04-06T15:31:57.655Z,98876.17
2019-04-06T15:34:28.341Z,98870.93
2019-04-06T15:37:00.063Z,98873.83
2019-04-06T15:39:30.455Z,98874.20
2019-04-06T15:42:01.590Z,98867.14
2019-04-06T15:44:32.756Z,98863.11
2019-04-06T15:47:03.930Z,98857.14
2019-04-06T15:49:35.112Z,98864.52
2019-04-06T15:52:12.245Z,98861.83
2019-04-06T15:54:39.274Z,98856.43
2019-04-06T15:57:11.203Z,98864.80
2019-04-06T15:59:47.860Z,98855.33
2019-04-06T16:02:21.500Z,98857.80
2019-04-06T16:04:55.415Z,98857.23
2019-04-06T16:07:33.816Z,98858.33
2019-04-06T16:10:06.547Z,98858.05
2019-04-06T16:12:37.765Z,98850.72
2019-04-06T16:15:13.957Z,98845.31
2019-04-06T16:17:45.561Z,98846.97
2019-04-06T16:20:17.298Z,98846.95
2019-04-06T16:22:49.096Z,98845.35
2019-04-06T16:25:20.316Z,98844.00
2019-04-06T16:27:57.019Z,98846.70
2019-04-06T16:30:37.444Z,98841.83
2019-04-06T16:33:09.622Z,98840.73
2019-04-06T16:35:40.791Z,98839.11
2019-04-06T16:38:12.233Z,98838.03
2019-04-06T16:40:41.620Z,98837.73
2019-04-06T16:43:13.140Z,98843.17
2019-04-06T16:45:46.895Z,98843.16
2019-04-06T16:48:27.701Z,98835.58
2019-04-06T16:50:58.922Z,98836.39
2019-04-06T16:53:30.069Z,98840.45
2019-04-06T16:56:01.249Z,98839.08
2019-04-06T16:58:31.688Z,98845.33
2019-04-06T17:01:02.902Z,98849.92
2019-04-06T17:03:34.044Z,98845.86
2019-04-06T17:06:08.158Z,98843.94
2019-04-06T17:08:39.417Z,98842.31
2019-04-06T17:11:10.718Z,98842.85
2019-04-06T17:13:41.972Z,98840.16
2019-04-06T17:16:12.394Z,98842.03
2019-04-06T17:18:43.714Z,98845.28
2019-04-06T17:21:17.028Z,98839.58
2019-04-06T17:23:47.911Z,98843.08
2019-04-06T17:26:19.203Z,98846.05
2019-04-06T17:28:50.395Z,98845.20
2019-04-06T17:31:21.844Z,98838.71
2019-04-06T17:33:53.197Z,98842.47
2019-04-06T17:36:22.499Z,98839.42
2019-04-06T17:38:53.756Z,98843.39
2019-04-06T17:41:25.431Z,98851.28
2019-04-06T17:43:56.667Z,98844.73
2019-04-06T17:46:27.984Z,98843.39
2019-04-06T17:48:59.234Z,98840.68
2019-04-06T17:51:30.396Z,98841.97
2019-04-06T17:54:01.633Z,98841.66
2019-04-06T17:56:33.253Z,98847.92
2019-04-06T17:59:03.025Z,98846.41
2019-04-06T18:01:34.295Z,98849.23
2019-04-06T18:04:05.447Z,98852.98
2019-04-06T18:06:37.330Z,98848.41
2019-04-06T18:09:10.274Z,98849.91
2019-04-06T18:11:41.358Z,98847.85
2019-04-06T18:14:11.173Z,98844.83
2019-04-06T18:16:40.807Z,98853.10
2019-04-06T18:19:10.370Z,98855.51
2019-04-06T18:21:39.989Z,98854.97
2019-04-06T18:24:09.542Z,98852.25
2019-04-06T18:26:38.712Z,98854.89
2019-04-06T18:29:08.531Z,98852.63
2019-04-06T18:31:39.762Z,98848.85
2019-04-06T18:34:09.370Z,98852.09
2019-04-06T18:36:40.552Z,98843.45
2019-04-06T18:39:11.839Z,98842.65
2019-04-06T18:41:41.391Z,98847.52
2019-04-06T18:44:11.304Z,98840.47
2019-04-06T18:46:40.780Z,98841.30
2019-04-06T18:49:10.256Z,98833.66
2019-04-06T18:51:39.717Z,98838.52
2019-04-06T18:54:09.896Z,98833.12
2019-04-06T18:56:39.430Z,98837.82
2019-04-06T18:59:10.476Z,98838.05
2019-04-06T19:01:40.404Z,98840.52
2019-04-06T19:04:10.447Z,98843.45
2019-04-06T19:06:40.033Z,98842.42
2019-04-06T19:09:20.780Z,98842.69
2019-04-06T19:11:53.241Z,98846.38
2019-04-06T19:14:13.107Z,98844.48
2019-04-06T19:16:42.563Z,98841.51
2019-04-06T19:19:12.595Z,98841.67
2019-04-06T19:21:43.240Z,98840.97
2019-04-06T19:24:13.786Z,98848.36
2019-04-06T19:26:43.477Z,98858.65
2019-04-06T19:29:16.090Z,98857.30
2019-04-06T19:31:46.009Z,98856.88
2019-04-06T19:34:15.774Z,98852.50
2019-04-06T19:36:45.419Z,98856.98
2019-04-06T19:39:15.182Z,98857.72
2019-04-06T19:41:44.192Z,98856.25
2019-04-06T19:44:13.535Z,98860.19
2019-04-06T19:46:43.295Z,98861.80
2019-04-06T19:49:13.026Z,98864.37
2019-04-06T19:51:43.017Z,98863.34
2019-04-06T19:54:12.317Z,98863.45
2019-04-06T19:56:41.511Z,98866.81
2019-04-06T19:59:12.948Z,98865.72
2019-04-06T20:01:42.490Z,98869.32
2019-04-06T20:04:12.055Z,98868.48
2019-04-06T20:06:42.078Z,98868.95
2019-04-06T20:09:11.728Z,98876.91
2019-04-06T20:11:41.248Z,98866.91
2019-04-06T20:14:10.781Z,98875.26
2019-04-06T20:16:40.726Z,98864.97
2019-04-06T20:19:10.319Z,98874.95
2019-04-06T20:21:39.819Z,98871.41
2019-04-06T20:24:09.612Z,98875.20
2019-04-06T20:26:40.094Z,98875.48
2019-04-06T20:29:09.903Z,98880.43
2019-04-06T20:31:39.646Z,98889.80
2019-04-06T20:34:09.094Z,98887.32
2019-04-06T20:36:38.610Z,98888.59
2019-04-06T20:39:09.346Z,98891.65
2019-04-06T20:41:38.851Z,98888.45
2019-04-06T20:44:08.643Z,98891.06
2019-04-06T20:46:38.680Z,98890.07
2019-04-06T20:49:09.201Z,98892.69
2019-04-06T20:51:38.985Z,98896.45
2019-04-06T20:54:09.061Z,98893.36
2019-04-06T20:56:38.744Z,98897.97
2019-04-06T20:59:07.962Z,98891.54
2019-04-06T21:01:37.315Z,98893.31
2019-04-06T21:04:06.943Z,98894.06
2019-04-06T21:06:37.045Z,98893.25
2019-04-06T21:09:09.177Z,98898.84
2019-04-06T21:11:39.270Z,98899.82
2019-04-06T21:14:09.074Z,98896.70
2019-04-06T21:16:38.938Z,98903.80
2019-04-06T21:19:09.137Z,98903.18
2019-04-06T21:21:38.700Z,98899.76
2019-04-06T21:24:08.091Z,98899.77
2019-04-06T21:26:38.032Z,98899.67
2019-04-06T21:29:07.966Z,98895.72
2019-04-06T21:31:37.565Z,98902.52
2019-04-06T21:34:11.869Z,98901.77
2019-04-06T21:36:38.304Z,98904.13
2019-04-06T21:39:08.338Z,98903.71
2019-04-06T21:41:37.483Z,98902.33
2019-04-06T21:44:07.542Z,98901.02
2019-04-06T21:46:39.257Z,98901.76
2019-04-06T21:49:11.273Z,98901.91
2019-04-06T21:51:40.825Z,98904.48
2019-04-06T21:54:10.114Z,98902.78
2019-04-06T21:56:39.578Z,98904.08
2019-04-06T21:59:09.150Z,98909.75
2019-04-06T22:01:40.047Z,98905.56
2019-04-06T22:04:17.563Z,98903.66
2019-04-06T22:06:41.364Z,98911.77
2019-04-06T22:09:12.743Z,98910.51
2019-04-06T22:11:42.448Z,98904.19
2019-04-06T22:14:12.476Z,98909.73
2019-04-06T22:16:43.049Z,98908.34
2019-04-06T22:19:12.791Z,98905.85
2019-04-06T22:21:42.903Z,98900.55
2019-04-06T22:24:12.455Z,98908.33
2019-04-06T22:26:41.982Z,98902.13
2019-04-06T22:29:11.795Z,98903.04
2019-04-06T22:31:41.552Z,98896.33
2019-04-06T22:36:51.586Z,98909.16
2019-04-06T22:39:21.542Z,98909.28
2019-04-06T22:41:50.961Z,98906.26
2019-04-06T22:44:21.038Z,98908.83
2019-04-06T22:46:51.411Z,98907.34
2019-04-06T22:49:20.575Z,98904.94
2019-04-06T22:51:50.056Z,98906.42
2019-04-06T22:54:19.668Z,98904.24
2019-04-06T22:56:49.565Z,98899.77
2019-04-06T22:59:19.050Z,98898.22
2019-04-06T23:01:49.436Z,98901.12
2019-04-06T23:04:20.666Z,98900.50
2019-04-06T23:06:52.455Z,98901.31
2019-04-06T23:09:22.481Z,98902.61
2019-04-06T23:11:52.585Z,98895.65
2019-04-06T23:14:22.459Z,98898.45
2019-04-06T23:16:51.948Z,98898.66
2019-04-06T23:19:21.456Z,98897.42
2019-04-06T23:21:51.010Z,98900.05
2019-04-06T23:24:20.475Z,98900.92
2019-04-06T23:26:49.952Z,98898.66
2019-04-06T23:29:19.537Z,98897.33
2019-04-06T23:31:49.528Z,98899.59
2019-04-06T23:34:19.222Z,98903.37
2019-04-06T23:36:48.195Z,98894.98
2019-04-06T23:39:18.398Z,98896.61
2019-04-06T23:41:48.401Z,98894.34
2019-04-06T23:44:18.452Z,98896.52
2019-04-06T23:46:48.164Z,98893.93
2019-04-06T23:49:18.186Z,98896.28
2019-04-06T23:51:47.765Z,98896.33
2019-04-06T23:54:17.281Z,98894.64
2019-04-06T23:56:47.498Z,98896.61
2019-04-06T23:59:17.607Z,98893.34
